DCMPY EDMA-LFKJ
Flight info
| Callsign | DCMPY |
|---|---|
| Flight time | 1h 20m |
| Altitude | 40000 |
| Route | MAH8G MAH Y100 ATMAX Y740 TIRUL M738 NATAG DCT LORLO DCT ATPED DCT IDREK DCT KREVA DCT TIPNI DCT LOMED DCT XOPTA DCT MOULE L146 BTA |
| Aircraft | LJ35/M-SGHRWXY/SB1 |
Departure
| Time | 2026-05-09 13:21 |
|---|---|
| Airport | Augsburg Airport (EDMA) |
Arrival
| Time | 2026-05-09 14:42 |
|---|---|
| Airport | Ajaccio Napoléon Bonaparte airport (LFKJ) |
| Time | Latitude | Longitude | Altitude | Speed | Heading |
|---|---|---|---|---|---|
| 2026-05-09 13:03 | 48.42519 | 10.93591 | 1515 ft | 0 kts | 251° |
| 2026-05-09 13:19 | 48.42519 | 10.93590 | 1515 ft | 1 kts | 251° |
| 2026-05-09 13:19 | 48.42535 | 10.93571 | 1515 ft | 6 kts | 5° |
| 2026-05-09 13:19 | 48.42552 | 10.93618 | 1516 ft | 6 kts | 73° |
| 2026-05-09 13:20 | 48.42569 | 10.93695 | 1518 ft | 10 kts | 70° |
| 2026-05-09 13:20 | 48.42598 | 10.93822 | 1518 ft | 16 kts | 71° |
| 2026-05-09 13:20 | 48.42634 | 10.93979 | 1517 ft | 13 kts | 52° |
| 2026-05-09 13:20 | 48.42697 | 10.93958 | 1516 ft | 11 kts | 270° |
| 2026-05-09 13:21 | 48.42689 | 10.93923 | 1516 ft | 0 kts | 251° |
| 2026-05-09 13:21 | 48.42629 | 10.93643 | 1516 ft | 93 kts | 252° |
| 2026-05-09 13:21 | 48.42298 | 10.92092 | 1833 ft | 201 kts | 255° |
| 2026-05-09 13:21 | 48.41829 | 10.89889 | 2761 ft | 218 kts | 249° |
| 2026-05-09 13:22 | 48.41337 | 10.87907 | 3616 ft | 185 kts | 249° |
| 2026-05-09 13:22 | 48.41043 | 10.86078 | 3994 ft | 195 kts | 269° |
| 2026-05-09 13:22 | 48.41492 | 10.84022 | 3981 ft | 223 kts | 307° |
| 2026-05-09 13:23 | 48.47486 | 10.84250 | 3992 ft | 233 kts | 43° |
| 2026-05-09 13:23 | 48.48471 | 10.86052 | 4184 ft | 215 kts | 59° |
| 2026-05-09 13:24 | 48.49117 | 10.87979 | 4482 ft | 200 kts | 66° |
| 2026-05-09 13:24 | 48.49711 | 10.89940 | 4980 ft | 210 kts | 66° |
| 2026-05-09 13:24 | 48.50382 | 10.91938 | 5482 ft | 217 kts | 62° |
| 2026-05-09 13:24 | 48.51137 | 10.93951 | 6002 ft | 223 kts | 61° |
| 2026-05-09 13:25 | 48.51987 | 10.95933 | 6523 ft | 229 kts | 46° |
| 2026-05-09 13:25 | 48.53376 | 10.97115 | 7007 ft | 235 kts | 13° |
| 2026-05-09 13:25 | 48.56353 | 10.95623 | 8029 ft | 238 kts | 309° |
| 2026-05-09 13:26 | 48.57036 | 10.93381 | 8548 ft | 237 kts | 278° |
| 2026-05-09 13:26 | 48.56844 | 10.90936 | 9081 ft | 238 kts | 248° |
| 2026-05-09 13:26 | 48.55830 | 10.88981 | 9615 ft | 241 kts | 218° |
| 2026-05-09 13:26 | 48.54273 | 10.88048 | 10148 ft | 245 kts | 191° |
| 2026-05-09 13:27 | 48.52513 | 10.87879 | 10669 ft | 278 kts | 184° |
| 2026-05-09 13:27 | 48.50353 | 10.87639 | 11207 ft | 344 kts | 187° |
| 2026-05-09 13:27 | 48.47947 | 10.87072 | 13041 ft | 346 kts | 191° |
| 2026-05-09 13:27 | 48.45536 | 10.86448 | 15015 ft | 359 kts | 190° |
| 2026-05-09 13:28 | 48.43024 | 10.85910 | 16780 ft | 370 kts | 189° |
| 2026-05-09 13:28 | 48.40435 | 10.85390 | 18499 ft | 381 kts | 190° |
| 2026-05-09 13:28 | 48.37761 | 10.84802 | 19818 ft | 399 kts | 191° |
| 2026-05-09 13:28 | 48.34913 | 10.84151 | 20079 ft | 419 kts | 190° |
| 2026-05-09 13:29 | 48.32068 | 10.83523 | 20087 ft | 405 kts | 190° |
| 2026-05-09 13:29 | 48.29328 | 10.82935 | 20084 ft | 391 kts | 190° |
| 2026-05-09 13:29 | 48.26677 | 10.82355 | 20082 ft | 379 kts | 191° |
| 2026-05-09 13:29 | 48.24073 | 10.81775 | 20078 ft | 385 kts | 191° |
| 2026-05-09 13:30 | 48.21327 | 10.81168 | 20783 ft | 396 kts | 190° |
| 2026-05-09 13:30 | 48.18596 | 10.80584 | 22619 ft | 403 kts | 190° |
| 2026-05-09 13:30 | 48.15772 | 10.79965 | 23792 ft | 416 kts | 191° |
| 2026-05-09 13:30 | 48.12883 | 10.79328 | 24906 ft | 423 kts | 191° |
| 2026-05-09 13:31 | 48.09946 | 10.78687 | 26000 ft | 430 kts | 191° |
| 2026-05-09 13:31 | 48.06957 | 10.78038 | 26998 ft | 437 kts | 191° |
| 2026-05-09 13:31 | 48.03919 | 10.77381 | 27946 ft | 444 kts | 192° |
| 2026-05-09 13:31 | 48.00840 | 10.76715 | 28830 ft | 451 kts | 192° |
| 2026-05-09 13:32 | 47.97762 | 10.76051 | 29849 ft | 451 kts | 192° |
| 2026-05-09 13:32 | 47.91629 | 10.74369 | 31060 ft | 450 kts | 202° |
| 2026-05-09 13:32 | 47.88670 | 10.72803 | 31070 ft | 451 kts | 204° |
| 2026-05-09 13:33 | 47.85723 | 10.71248 | 31075 ft | 439 kts | 204° |
| 2026-05-09 13:33 | 47.82937 | 10.69854 | 31067 ft | 420 kts | 203° |
| 2026-05-09 13:33 | 47.80155 | 10.68472 | 31960 ft | 420 kts | 201° |
| 2026-05-09 13:33 | 47.77286 | 10.67610 | 33083 ft | 420 kts | 194° |
| 2026-05-09 13:34 | 47.74384 | 10.67067 | 34091 ft | 420 kts | 192° |
| 2026-05-09 13:34 | 47.71482 | 10.66593 | 34884 ft | 418 kts | 192° |
| 2026-05-09 13:34 | 47.68561 | 10.65975 | 35067 ft | 432 kts | 194° |
| 2026-05-09 13:34 | 47.65537 | 10.65243 | 35070 ft | 445 kts | 194° |
| 2026-05-09 13:35 | 47.62536 | 10.64611 | 35078 ft | 426 kts | 193° |
| 2026-05-09 13:35 | 47.59589 | 10.64052 | 35575 ft | 426 kts | 193° |
| 2026-05-09 13:35 | 47.56669 | 10.63449 | 36423 ft | 422 kts | 193° |
| 2026-05-09 13:35 | 47.53773 | 10.62813 | 37170 ft | 420 kts | 193° |
| 2026-05-09 13:36 | 47.50923 | 10.62219 | 37871 ft | 395 kts | 193° |
| 2026-05-09 13:36 | 47.48262 | 10.61677 | 38514 ft | 391 kts | 194° |
| 2026-05-09 13:36 | 47.45542 | 10.61099 | 39217 ft | 388 kts | 194° |
| 2026-05-09 13:36 | 47.42869 | 10.60531 | 39786 ft | 388 kts | 193° |
| 2026-05-09 13:37 | 47.40205 | 10.59979 | 40065 ft | 398 kts | 193° |
| 2026-05-09 13:37 | 47.37410 | 10.59399 | 40069 ft | 414 kts | 193° |
| 2026-05-09 13:37 | 47.34508 | 10.58797 | 40074 ft | 428 kts | 193° |
| 2026-05-09 13:37 | 47.31514 | 10.58179 | 40086 ft | 440 kts | 193° |
| 2026-05-09 13:38 | 47.25336 | 10.56906 | 40088 ft | 451 kts | 192° |
| 2026-05-09 13:38 | 47.19132 | 10.55629 | 40088 ft | 450 kts | 193° |
| 2026-05-09 13:39 | 47.12921 | 10.54348 | 40079 ft | 450 kts | 192° |
| 2026-05-09 13:39 | 47.07747 | 10.53433 | 40055 ft | 453 kts | 187° |
| 2026-05-09 13:40 | 47.04579 | 10.53704 | 40064 ft | 460 kts | 176° |
| 2026-05-09 13:40 | 47.01443 | 10.54780 | 40062 ft | 464 kts | 167° |
| 2026-05-09 13:40 | 46.95278 | 10.57617 | 40078 ft | 465 kts | 168° |
| 2026-05-09 13:41 | 46.89089 | 10.60380 | 40071 ft | 466 kts | 168° |
| 2026-05-09 13:41 | 46.82899 | 10.63188 | 40072 ft | 466 kts | 168° |
| 2026-05-09 13:42 | 46.76700 | 10.65898 | 40083 ft | 463 kts | 172° |
| 2026-05-09 13:42 | 46.70392 | 10.66457 | 40086 ft | 450 kts | 191° |
| 2026-05-09 13:43 | 46.64399 | 10.64361 | 40098 ft | 440 kts | 202° |
| 2026-05-09 13:43 | 46.58547 | 10.61788 | 40103 ft | 439 kts | 202° |
| 2026-05-09 13:44 | 46.52692 | 10.59228 | 40110 ft | 439 kts | 202° |
| 2026-05-09 13:44 | 46.46878 | 10.56680 | 40105 ft | 438 kts | 202° |
| 2026-05-09 13:45 | 46.41054 | 10.54150 | 40108 ft | 436 kts | 202° |
| 2026-05-09 13:45 | 46.35242 | 10.51622 | 40106 ft | 436 kts | 202° |
| 2026-05-09 13:46 | 46.29426 | 10.49093 | 40108 ft | 436 kts | 202° |
| 2026-05-09 13:46 | 46.23613 | 10.46580 | 40116 ft | 436 kts | 201° |
| 2026-05-09 13:47 | 46.17621 | 10.44920 | 40117 ft | 446 kts | 186° |
| 2026-05-09 13:47 | 46.11453 | 10.46380 | 40125 ft | 464 kts | 166° |
| 2026-05-09 13:48 | 46.05613 | 10.50603 | 40108 ft | 472 kts | 156° |
| 2026-05-09 13:48 | 45.99829 | 10.55071 | 40118 ft | 472 kts | 157° |
| 2026-05-09 13:49 | 45.94034 | 10.59506 | 40110 ft | 472 kts | 157° |
| 2026-05-09 13:49 | 45.88247 | 10.63957 | 40107 ft | 472 kts | 157° |
| 2026-05-09 13:50 | 45.82444 | 10.68381 | 40087 ft | 473 kts | 157° |
| 2026-05-09 13:50 | 45.76658 | 10.72802 | 40090 ft | 475 kts | 157° |
| 2026-05-09 13:51 | 45.70824 | 10.77237 | 40082 ft | 475 kts | 158° |
| 2026-05-09 13:51 | 45.64974 | 10.81631 | 40044 ft | 473 kts | 160° |
| 2026-05-09 13:52 | 45.58832 | 10.84734 | 40054 ft | 468 kts | 167° |
| 2026-05-09 13:52 | 45.52676 | 10.87732 | 40053 ft | 467 kts | 167° |
| 2026-05-09 13:53 | 45.46513 | 10.90689 | 40050 ft | 467 kts | 167° |
| 2026-05-09 13:53 | 45.40340 | 10.93661 | 40039 ft | 469 kts | 167° |
| 2026-05-09 13:54 | 45.34190 | 10.96609 | 40040 ft | 470 kts | 167° |
| 2026-05-09 13:54 | 45.27996 | 10.99573 | 40066 ft | 470 kts | 167° |
| 2026-05-09 13:55 | 45.21764 | 11.02552 | 40065 ft | 470 kts | 167° |
| 2026-05-09 13:55 | 45.15565 | 11.05499 | 40068 ft | 470 kts | 167° |
| 2026-05-09 13:56 | 45.09397 | 11.08434 | 40070 ft | 470 kts | 167° |
| 2026-05-09 13:56 | 45.03198 | 11.11372 | 40043 ft | 470 kts | 168° |
| 2026-05-09 13:57 | 44.97008 | 11.14300 | 40032 ft | 468 kts | 168° |
| 2026-05-09 13:57 | 44.90826 | 11.17214 | 40033 ft | 468 kts | 168° |
| 2026-05-09 13:58 | 44.84636 | 11.20130 | 40030 ft | 468 kts | 168° |
| 2026-05-09 13:58 | 44.78442 | 11.22849 | 40024 ft | 460 kts | 175° |
| 2026-05-09 13:59 | 44.72189 | 11.23328 | 40032 ft | 446 kts | 189° |
| 2026-05-09 13:59 | 44.65982 | 11.23080 | 40035 ft | 447 kts | 188° |
| 2026-05-09 14:00 | 44.61876 | 11.22954 | 40034 ft | 444 kts | 188° |
| 2026-05-09 14:00 | 44.56775 | 11.22761 | 40036 ft | 432 kts | 189° |
| 2026-05-09 14:00 | 44.53783 | 11.22647 | 40032 ft | 428 kts | 189° |
| 2026-05-09 14:01 | 44.47875 | 11.22438 | 40030 ft | 423 kts | 189° |
| 2026-05-09 14:01 | 44.42020 | 11.22225 | 40032 ft | 418 kts | 189° |
| 2026-05-09 14:02 | 44.36077 | 11.21997 | 40047 ft | 438 kts | 189° |
| 2026-05-09 14:02 | 44.30095 | 11.20899 | 40036 ft | 429 kts | 204° |
| 2026-05-09 14:03 | 44.27374 | 11.19378 | 40036 ft | 418 kts | 213° |
| 2026-05-09 14:03 | 44.24845 | 11.17423 | 40044 ft | 414 kts | 215° |
| 2026-05-09 14:03 | 44.19810 | 11.13521 | 40050 ft | 414 kts | 215° |
| 2026-05-09 14:04 | 44.14776 | 11.09633 | 40052 ft | 414 kts | 215° |
| 2026-05-09 14:04 | 44.09741 | 11.05741 | 40056 ft | 414 kts | 215° |
| 2026-05-09 14:05 | 44.04715 | 11.01876 | 40041 ft | 411 kts | 215° |
| 2026-05-09 14:05 | 43.99800 | 10.97866 | 40036 ft | 409 kts | 217° |
| 2026-05-09 14:06 | 43.94937 | 10.93753 | 40037 ft | 409 kts | 218° |
| 2026-05-09 14:06 | 43.90064 | 10.89677 | 40035 ft | 409 kts | 217° |
| 2026-05-09 14:07 | 43.85216 | 10.85615 | 40038 ft | 407 kts | 217° |
| 2026-05-09 14:07 | 43.80373 | 10.81566 | 40037 ft | 406 kts | 217° |
| 2026-05-09 14:08 | 43.75531 | 10.77523 | 40040 ft | 406 kts | 217° |
| 2026-05-09 14:08 | 43.70690 | 10.73497 | 40044 ft | 405 kts | 217° |
| 2026-05-09 14:09 | 43.65869 | 10.69478 | 40052 ft | 405 kts | 217° |
| 2026-05-09 14:09 | 43.61054 | 10.65473 | 40057 ft | 404 kts | 218° |
| 2026-05-09 14:10 | 43.53832 | 10.59506 | 40039 ft | 404 kts | 217° |
| 2026-05-09 14:11 | 43.49015 | 10.55516 | 40041 ft | 404 kts | 217° |
| 2026-05-09 14:11 | 43.44193 | 10.51548 | 40039 ft | 404 kts | 216° |
| 2026-05-09 14:12 | 43.39365 | 10.47605 | 40044 ft | 403 kts | 216° |
| 2026-05-09 14:12 | 43.34556 | 10.43638 | 40044 ft | 403 kts | 217° |
| 2026-05-09 14:13 | 43.29740 | 10.39704 | 40048 ft | 403 kts | 216° |
| 2026-05-09 14:15 | 43.10480 | 10.23961 | 39904 ft | 406 kts | 216° |
| 2026-05-09 14:15 | 43.08051 | 10.21975 | 39076 ft | 403 kts | 217° |
| 2026-05-09 14:15 | 43.05665 | 10.20058 | 38232 ft | 390 kts | 216° |
| 2026-05-09 14:15 | 43.03352 | 10.18203 | 36861 ft | 384 kts | 216° |
| 2026-05-09 14:16 | 43.01065 | 10.16344 | 35718 ft | 378 kts | 216° |
| 2026-05-09 14:16 | 42.98824 | 10.14522 | 34664 ft | 372 kts | 216° |
| 2026-05-09 14:16 | 42.96613 | 10.12737 | 33588 ft | 366 kts | 216° |
| 2026-05-09 14:16 | 42.94438 | 10.10982 | 32493 ft | 360 kts | 216° |
| 2026-05-09 14:17 | 42.92295 | 10.09254 | 31437 ft | 355 kts | 216° |
| 2026-05-09 14:17 | 42.90180 | 10.07550 | 30435 ft | 351 kts | 216° |
| 2026-05-09 14:17 | 42.88090 | 10.05865 | 29357 ft | 347 kts | 216° |
| 2026-05-09 14:17 | 42.86016 | 10.04193 | 28331 ft | 345 kts | 215° |
| 2026-05-09 14:18 | 42.83961 | 10.02538 | 27408 ft | 342 kts | 214° |
| 2026-05-09 14:18 | 42.81949 | 10.00920 | 26521 ft | 340 kts | 214° |
| 2026-05-09 14:18 | 42.79892 | 9.99271 | 25649 ft | 338 kts | 214° |
| 2026-05-09 14:18 | 42.77871 | 9.97655 | 24832 ft | 336 kts | 213° |
| 2026-05-09 14:19 | 42.75869 | 9.96047 | 24055 ft | 334 kts | 213° |
| 2026-05-09 14:19 | 42.73876 | 9.94445 | 23231 ft | 332 kts | 213° |
| 2026-05-09 14:19 | 42.71920 | 9.92872 | 22422 ft | 329 kts | 213° |
| 2026-05-09 14:19 | 42.69963 | 9.91295 | 21644 ft | 325 kts | 213° |
| 2026-05-09 14:20 | 42.68022 | 9.89742 | 20904 ft | 322 kts | 213° |
| 2026-05-09 14:20 | 42.66188 | 9.88039 | 20187 ft | 317 kts | 223° |
| 2026-05-09 14:20 | 42.64721 | 9.85825 | 19497 ft | 314 kts | 235° |
| 2026-05-09 14:21 | 42.63074 | 9.80428 | 18137 ft | 311 kts | 256° |
| 2026-05-09 14:21 | 42.62598 | 9.77570 | 17429 ft | 309 kts | 256° |
| 2026-05-09 14:21 | 42.62111 | 9.74752 | 16762 ft | 306 kts | 256° |
| 2026-05-09 14:21 | 42.61625 | 9.71948 | 16117 ft | 303 kts | 256° |
| 2026-05-09 14:22 | 42.61140 | 9.69175 | 15499 ft | 301 kts | 256° |
| 2026-05-09 14:22 | 42.60654 | 9.66419 | 14891 ft | 299 kts | 256° |
| 2026-05-09 14:22 | 42.60183 | 9.63683 | 14324 ft | 296 kts | 256° |
| 2026-05-09 14:22 | 42.59716 | 9.60971 | 13755 ft | 294 kts | 256° |
| 2026-05-09 14:23 | 42.59249 | 9.58277 | 13150 ft | 293 kts | 256° |
| 2026-05-09 14:23 | 42.58777 | 9.55593 | 12554 ft | 291 kts | 256° |
| 2026-05-09 14:23 | 42.58310 | 9.52930 | 12001 ft | 289 kts | 255° |
| 2026-05-09 14:23 | 42.57836 | 9.50289 | 11460 ft | 287 kts | 253° |
| 2026-05-09 14:24 | 42.57003 | 9.47844 | 10906 ft | 285 kts | 237° |
| 2026-05-09 14:24 | 42.55950 | 9.45575 | 10442 ft | 283 kts | 239° |
| 2026-05-09 14:24 | 42.55025 | 9.43041 | 10357 ft | 325 kts | 242° |
| 2026-05-09 14:24 | 42.53977 | 9.40301 | 10753 ft | 315 kts | 239° |
| 2026-05-09 14:25 | 42.52940 | 9.37846 | 11042 ft | 290 kts | 239° |
| 2026-05-09 14:25 | 42.51942 | 9.35503 | 11006 ft | 287 kts | 239° |
| 2026-05-09 14:25 | 42.50961 | 9.33119 | 11011 ft | 292 kts | 240° |
| 2026-05-09 14:25 | 42.49987 | 9.30698 | 11012 ft | 293 kts | 240° |
| 2026-05-09 14:26 | 42.48984 | 9.28285 | 11016 ft | 295 kts | 239° |
| 2026-05-09 14:26 | 42.47989 | 9.25859 | 11014 ft | 295 kts | 239° |
| 2026-05-09 14:26 | 42.46993 | 9.23425 | 10998 ft | 295 kts | 240° |
| 2026-05-09 14:26 | 42.46001 | 9.20993 | 10998 ft | 295 kts | 239° |
| 2026-05-09 14:27 | 42.44977 | 9.18559 | 11000 ft | 299 kts | 238° |
| 2026-05-09 14:27 | 42.43950 | 9.16087 | 11009 ft | 302 kts | 239° |
| 2026-05-09 14:27 | 42.42927 | 9.13595 | 11011 ft | 305 kts | 239° |
| 2026-05-09 14:27 | 42.41889 | 9.11083 | 11020 ft | 307 kts | 239° |
| 2026-05-09 14:28 | 42.41179 | 9.09378 | 11008 ft | 307 kts | 239° |
| 2026-05-09 14:28 | 42.40150 | 9.06878 | 10999 ft | 310 kts | 240° |
| 2026-05-09 14:28 | 42.39099 | 9.04327 | 11001 ft | 312 kts | 239° |
| 2026-05-09 14:28 | 42.38011 | 9.01726 | 10996 ft | 314 kts | 239° |
| 2026-05-09 14:29 | 42.36954 | 8.99191 | 10995 ft | 314 kts | 239° |
| 2026-05-09 14:29 | 42.35884 | 8.96609 | 10996 ft | 315 kts | 240° |
| 2026-05-09 14:29 | 42.34810 | 8.94020 | 10991 ft | 316 kts | 239° |
| 2026-05-09 14:29 | 42.33729 | 8.91423 | 10994 ft | 317 kts | 239° |
| 2026-05-09 14:30 | 42.32644 | 8.88828 | 10986 ft | 315 kts | 239° |
| 2026-05-09 14:30 | 42.31589 | 8.86287 | 10987 ft | 301 kts | 240° |
| 2026-05-09 14:30 | 42.30591 | 8.83895 | 10984 ft | 284 kts | 239° |
| 2026-05-09 14:30 | 42.29645 | 8.81626 | 10984 ft | 271 kts | 239° |
| 2026-05-09 14:31 | 42.28717 | 8.79438 | 10833 ft | 270 kts | 238° |
| 2026-05-09 14:31 | 42.27758 | 8.77181 | 10254 ft | 282 kts | 239° |
| 2026-05-09 14:31 | 42.26794 | 8.74828 | 9688 ft | 291 kts | 239° |
| 2026-05-09 14:31 | 42.25787 | 8.72418 | 9075 ft | 296 kts | 238° |
| 2026-05-09 14:32 | 42.24795 | 8.70063 | 8471 ft | 281 kts | 238° |
| 2026-05-09 14:32 | 42.23864 | 8.67818 | 7896 ft | 269 kts | 237° |
| 2026-05-09 14:32 | 42.22952 | 8.65650 | 7297 ft | 262 kts | 237° |
| 2026-05-09 14:32 | 42.22065 | 8.63528 | 6725 ft | 259 kts | 237° |
| 2026-05-09 14:33 | 42.21189 | 8.61445 | 6129 ft | 253 kts | 236° |
| 2026-05-09 14:33 | 42.20348 | 8.59461 | 5973 ft | 232 kts | 236° |
| 2026-05-09 14:33 | 42.19578 | 8.57640 | 5723 ft | 223 kts | 236° |
| 2026-05-09 14:33 | 42.18791 | 8.55840 | 5112 ft | 229 kts | 235° |
| 2026-05-09 14:34 | 42.17839 | 8.54133 | 4492 ft | 229 kts | 219° |
| 2026-05-09 14:34 | 42.16511 | 8.52969 | 3873 ft | 228 kts | 201° |
| 2026-05-09 14:34 | 42.14978 | 8.52453 | 3262 ft | 228 kts | 182° |
| 2026-05-09 14:34 | 42.13430 | 8.52656 | 2965 ft | 213 kts | 163° |
| 2026-05-09 14:35 | 42.12150 | 8.53376 | 2978 ft | 188 kts | 147° |
| 2026-05-09 14:35 | 42.11167 | 8.54399 | 2974 ft | 170 kts | 137° |
| 2026-05-09 14:35 | 42.10218 | 8.55463 | 2979 ft | 185 kts | 139° |
| 2026-05-09 14:35 | 42.09195 | 8.56602 | 2977 ft | 197 kts | 139° |
| 2026-05-09 14:36 | 42.08121 | 8.57811 | 2992 ft | 205 kts | 139° |
| 2026-05-09 14:36 | 42.07007 | 8.59062 | 2993 ft | 211 kts | 140° |
| 2026-05-09 14:36 | 42.05864 | 8.60343 | 2989 ft | 216 kts | 140° |
| 2026-05-09 14:36 | 42.04703 | 8.61643 | 2992 ft | 216 kts | 140° |
| 2026-05-09 14:37 | 42.03556 | 8.62931 | 2986 ft | 214 kts | 140° |
| 2026-05-09 14:37 | 42.02419 | 8.64203 | 2987 ft | 212 kts | 140° |
| 2026-05-09 14:37 | 42.01351 | 8.65559 | 2978 ft | 211 kts | 128° |
| 2026-05-09 14:37 | 42.00696 | 8.67312 | 2976 ft | 207 kts | 110° |
| 2026-05-09 14:38 | 42.00430 | 8.69132 | 2960 ft | 194 kts | 100° |
| 2026-05-09 14:38 | 42.00236 | 8.70897 | 2974 ft | 188 kts | 101° |
| 2026-05-09 14:38 | 42.00001 | 8.72619 | 2955 ft | 188 kts | 102° |
| 2026-05-09 14:38 | 41.99748 | 8.74414 | 2697 ft | 204 kts | 100° |
| 2026-05-09 14:39 | 41.99508 | 8.76356 | 2379 ft | 210 kts | 100° |
| 2026-05-09 14:39 | 41.99272 | 8.78220 | 2066 ft | 194 kts | 101° |
| 2026-05-09 14:39 | 41.99052 | 8.79855 | 1770 ft | 165 kts | 103° |
| 2026-05-09 14:39 | 41.98771 | 8.81283 | 1506 ft | 155 kts | 120° |
| 2026-05-09 14:40 | 41.98061 | 8.82305 | 1272 ft | 147 kts | 148° |
| 2026-05-09 14:40 | 41.97148 | 8.82756 | 1042 ft | 130 kts | 174° |
| 2026-05-09 14:40 | 41.96307 | 8.82659 | 815 ft | 126 kts | 196° |
| 2026-05-09 14:40 | 41.95482 | 8.82177 | 603 ft | 133 kts | 205° |
| 2026-05-09 14:41 | 41.94653 | 8.81658 | 438 ft | 129 kts | 204° |
| 2026-05-09 14:41 | 41.93868 | 8.81161 | 248 ft | 128 kts | 205° |
| 2026-05-09 14:41 | 41.93085 | 8.80664 | 67 ft | 120 kts | 205° |
| 2026-05-09 14:41 | 41.92329 | 8.80195 | 16 ft | 103 kts | 205° |
| 2026-05-09 14:42 | 41.91849 | 8.79900 | 15 ft | 59 kts | 206° |
| 2026-05-09 14:42 | 41.91558 | 8.79718 | 13 ft | 35 kts | 206° |
| 2026-05-09 14:42 | 41.91324 | 8.79575 | 13 ft | 34 kts | 203° |
| 2026-05-09 14:42 | 41.91252 | 8.79430 | 14 ft | 19 kts | 301° |
| 2026-05-09 14:43 | 41.91378 | 8.79345 | 14 ft | 24 kts | 337° |
| 2026-05-09 14:43 | 41.91531 | 8.79376 | 14 ft | 24 kts | 25° |
| 2026-05-09 14:43 | 41.91704 | 8.79483 | 15 ft | 27 kts | 23° |
| 2026-05-09 14:43 | 41.91885 | 8.79597 | 15 ft | 32 kts | 25° |
| 2026-05-09 14:44 | 41.92059 | 8.79703 | 15 ft | 28 kts | 24° |
| 2026-05-09 14:44 | 41.92224 | 8.79806 | 15 ft | 20 kts | 20° |
| 2026-05-09 14:44 | 41.92299 | 8.79754 | 16 ft | 19 kts | 273° |
| 2026-05-09 14:44 | 41.92312 | 8.79585 | 15 ft | 11 kts | 281° |
| 2026-05-09 14:45 | 41.92276 | 8.79521 | 15 ft | 12 kts | 181° |
| 2026-05-09 14:45 | 41.92208 | 8.79469 | 15 ft | 14 kts | 228° |
| 2026-05-09 14:45 | 41.92192 | 8.79344 | 15 ft | 16 kts | 264° |
| 2026-05-09 14:45 | 41.92162 | 8.79329 | 15 ft | 0 kts | 188° |
| 2026-05-09 14:46 | 41.92161 | 8.79329 | 15 ft | 0 kts | 188° |